Prairieton, Indiana
Current Conditions -  °F | °C
As of 10:53 PM on Sunday 23 Nov 2014 (Local Time) from KHUF Reporting Station
Light Rain Light Rain  
Wind Chill: 53°   Ceiling: 700
Heat Index: 53°   Visibility: 8mi
Dew Point: 52°   Wind: 8mph
Humidity: 96%   Direction: 210°SSW
Pressure: 29.19"   Gusts: NA
Location:  39.37°N, 87.47°W
Report Text: KHUF 240353Z 21007KT 8SM -RA OVC007 12/11 A2919 RMK AO2 CIG 004V011 SLP885 P0003 T01170111 $
Loading
Personal Weather Stations






























Interactive Weather Map New forecast layout! Learn more

10-Day Weather Forecast

Advertisements
Track Severe Weather on mobile